Aviation WX

[Source: ADDS]
METAR
KFKL 250635Z AUTO 25005KT 10SM CLR 13/11 A3003 RMK AO1 =
TAF
KFKL 250520Z 2506/2606 25004KT P6SM FEW060 FM251600 26011G20KT P6SM BKN070 FM260200 25005KT P6SM SCT070 AMD LTD TO CLD VIS AND WIND =